Venango, Pennsylvania
Current Conditions -  °F | °C
As of 1:01 AM on Saturday 29 Nov 2014 (Local Time) from KGKJ Reporting Station
Haze Haze  
Wind Chill: 18°   Ceiling: 4300
Heat Index: 24°   Visibility: 3mi
Dew Point: 20°   Wind: 5mph
Humidity: 84%   Direction: 150°SSE
Pressure: 30.13"   Gusts: NA
Location:  41.77°N, 80.11°W
Report Text: KGKJ 290601Z AUTO 15004KT 3SM BR BKN043 OVC070 M04/M07 A3013 RMK AO2 SNE00 P0000 T10441067 TSNO
Loading
Personal Weather Stations






























Interactive Weather Map New forecast layout! Learn more

10-Day Weather Forecast

Advertisements
Track Severe Weather on mobile